• Join FlightAware (Why Join?)
  • Login
  • US Flag 
12:10PM EDT


 

Airport Tracker/Info


-or-


 

Live Flight TrackerFlight Track Log ✈ N315L ✈ 28-Sep-2013 ✈ KIGQ - KCGS

Flight Track Log - Related Links

Times and Time Zones

All times are in EDT time to prevent confusion due to time zone crossing. See the N315L flight status page for this flight to view local times or setup timezone preferences in your user account.

Time Position Orientation Groundspeed Altitude Reporting Facility
EDT Latitude Longitude Course Direction KTS MPH feet Rate Location/Type
02:41PM 41.4667 -87.3000 90° East 135 155 7,200  Level Chicago TRACON
02:42PM 41.4667 -87.2500 90° East 140 161 7,400 180 Climbing Chicago TRACON
02:43PM 41.4589 -87.2022 102° East 144 166 7,600 60 Climbing Chicago Center
02:44PM 41.4517 -87.1500 100° East 145 167 7,600  Level Chicago Center
02:45PM 41.4406 -87.0983 106° East 144 166 7,600  Level Chicago Center
02:46PM 41.4294 -87.0478 106° East 144 166 7,600  Level Chicago Center
02:47PM 41.4197 -86.9956 104° East 145 167 7,600  Level Chicago Center
02:48PM 41.4097 -86.9436 104° East 147 169 7,600  Level Chicago Center
02:49PM 41.3975 -86.8797 104° East 149 171 7,600  Level Chicago Center
02:50PM 41.3886 -86.8275 103° East 146 168 7,600  Level Chicago Center
02:51PM 41.3808 -86.7753 101° East 145 167 7,600  Level Chicago Center
02:52PM 41.3703 -86.7233 105° East 146 168 7,600  Level Chicago Center
02:53PM 41.3583 -86.6625 105° East 148 170 7,600  Level Chicago Center
02:54PM 41.3486 -86.6094 104° East 148 170 7,600  Level Chicago Center
02:55PM 41.3386 -86.5581 105° East 147 169 7,600  Level Chicago Center
02:56PM 41.3289 -86.5064 104° East 146 168 7,600  Level Chicago Center
02:57PM 41.3206 -86.4553 102° East 143 165 7,600  Level Chicago Center
02:58PM 41.3108 -86.4050 104° East 142 163 7,600  Level Chicago Center
02:59PM 41.2981 -86.3425 105° East 145 167 7,600  Level Chicago Center
03:00PM 41.2892 -86.2903 103° East 145 167 7,600  Level Chicago Center
03:01PM 41.2775 -86.2378 106° East 148 170 7,600  Level Chicago Center
03:02PM 41.2681 -86.1850 103° East 148 170 7,600  Level Chicago Center
03:03PM 41.2592 -86.1331 103° East 147 169 7,600  Level Chicago Center
03:04PM 41.2458 -86.0683 105° East 151 174 7,600  Level Chicago Center
03:05PM 41.2364 -86.0144 103° East 152 175 7,600  Level Chicago Center
03:06PM 41.2272 -85.9622 103° East 148 170 7,600  Level Chicago Center
03:07PM 41.2167 -85.9078 104° East 150 173 7,600  Level Chicago Center
03:08PM 41.2072 -85.8553 103° East 149 171 7,700  Climbing Chicago Center
03:09PM 41.1981 -85.8033 103° East 146 168 7,700  Level Chicago Center
03:11PM 41.1856 -85.7389 104° East 149 171 7,700  Level Chicago Center
03:12PM 41.1750 -85.6856 105° East 151 174 7,700  Level Chicago Center
03:13PM 41.1647 -85.6328 104° East 149 171 7,700 -60 Level Chicago Center
03:14PM 41.1536 -85.5792 105° East 150 173 7,600 -60 Descending Chicago Center
03:15PM 41.1431 -85.5258 105° East 150 173 7,600  Level Chicago Center
03:16PM 41.1311 -85.4633 104° East 148 170 7,600  Level Chicago Center
03:17PM 41.1211 -85.4114 104° East 146 168 7,600  Level Chicago Center
03:18PM 41.1111 -85.3578 104° East 148 170 7,600  Level Chicago Center
03:19PM 41.1003 -85.3058 105° East 148 170 7,600  Level Chicago Center
03:20PM 41.0900 -85.2547 105° East 146 168 7,600  Level Chicago Center
03:21PM 41.0794 -85.2003 104° East 150 173 7,600  Level Chicago Center
03:22PM 41.0669 -85.1372 105° East 149 171 7,600  Level Chicago Center
03:23PM 41.0569 -85.0853 104° East 148 170 7,600  Level Chicago Center
03:24PM 41.0464 -85.0328 105° East 147 169 7,600  Level Chicago Center
03:25PM 41.0361 -84.9800 104° East 148 170 7,600  Level Chicago Center
03:26PM 41.0258 -84.9278 105° East 148 170 7,600  Level Chicago Center
03:27PM 41.0158 -84.8761 104° East 146 168 7,600  Level Chicago Center
03:28PM 41.0047 -84.8233 106° East 148 170 7,600  Level Chicago Center
03:29PM 40.9922 -84.7619 105° East 146 168 7,600  Level Chicago Center
03:30PM 40.9819 -84.7075 104° East 148 170 7,600  Level Chicago Center
03:31PM 40.9714 -84.6561 105° East 148 170 7,600  Level Chicago Center
03:32PM 40.9614 -84.6039 104° East 147 169 7,600  Level Chicago Center
03:34PM 40.9403 -84.4981 105° East 149 171 7,600  Level Chicago Center
03:35PM 40.9269 -84.4356 106° East 148 170 7,600  Level Chicago Center
03:36PM 40.9172 -84.3817 103° East 149 171 7,600  Level Chicago Center
03:37PM 40.9064 -84.3292 105° East 149 171 7,600  Level Chicago Center
03:38PM 40.8956 -84.2756 105° East 150 173 7,600  Level Chicago Center
03:39PM 40.8844 -84.2233 106° East 150 173 7,600  Level Chicago Center
03:40PM 40.8744 -84.1697 104° East 149 171 7,600  Level Chicago Center
03:41PM 40.8631 -84.1211 107° East 146 168 7,600  Level Indianapolis Center
03:42PM 40.8517 -84.0694 106° East 144 166 7,600  Level Indianapolis Center
03:43PM 40.8400 -84.0153 106° East 148 170 7,600  Level Indianapolis Center
03:44PM 40.8292 -83.9631 105° East 149 171 7,600  Level Indianapolis Center
03:45PM 40.8189 -83.9094 104° East 149 171 7,600  Level Indianapolis Center
03:46PM 40.8081 -83.8561 105° East 149 171 7,600  Level Indianapolis Center
03:47PM 40.7983 -83.8031 104° East 148 170 7,600  Level Indianapolis Center
03:48PM 40.7856 -83.7506 108° East 148 170 7,600  Level Indianapolis Center
03:49PM 40.7761 -83.7142 109° East 151 174 7,600  Level Indianapolis Center
03:50PM 40.7658 -83.6631 105° East 148 170 7,600  Level Indianapolis Center
03:51PM 40.7572 -83.6119 103° East 145 167 7,600  Level Indianapolis Center
03:52PM 40.7433 -83.5575 109° East 149 171 7,600  Level Indianapolis Center
03:53PM 40.7319 -83.5058 106° East 149 171 7,600  Level Indianapolis Center
03:54PM 40.7206 -83.4525 106° East 148 170 7,600  Level Indianapolis Center
03:55PM 40.7114 -83.4008 103° East 147 169 7,600  Level Indianapolis Center
03:56PM 40.6983 -83.3472 108° East 149 171 7,600  Level Indianapolis Center
03:57PM 40.6900 -83.2961 102° East 147 169 7,600  Level Indianapolis Center
03:58PM 40.6750 -83.2342 108° East 147 169 7,600  Level Indianapolis Center
03:59PM 40.6633 -83.1808 106° East 149 171 7,600  Level Indianapolis Center
04:00PM 40.6519 -83.1275 106° East 150 173 7,600  Level Indianapolis Center
04:01PM 40.6403 -83.0753 106° East 149 171 7,600  Level Indianapolis Center
04:02PM 40.6292 -83.0239 106° East 148 170 7,600  Level Indianapolis Center
04:03PM 40.6169 -82.9697 107° East 149 171 7,600  Level Indianapolis Center
04:04PM 40.6072 -82.9167 104° East 150 173 7,600  Level Indianapolis Center
04:05PM 40.5944 -82.8653 108° East 148 170 7,600  Level Indianapolis Center
04:06PM 40.5814 -82.8131 108° East 148 170 7,600  Level Indianapolis Center
04:07PM 40.5714 -82.7619 104° East 147 169 7,600  Level Indianapolis Center
04:08PM 40.5600 -82.7086 106° East 147 169 7,600  Level Indianapolis Center
04:09PM 40.5489 -82.6556 105° East 148 170 7,600  Level Indianapolis Center
04:10PM 40.5369 -82.5947 104° East 148 170 7,600  Level Indianapolis Center
04:12PM 40.5258 -82.5419 105° East 148 170 7,600  Level Indianapolis Center
04:13PM 40.5153 -82.4906 105° East 147 169 7,600  Level Indianapolis Center
04:14PM 40.5028 -82.4386 108° East 147 169 7,600  Level Indianapolis Center
04:15PM 40.4908 -82.3881 107° East 145 167 7,600  Level Indianapolis Center
04:16PM 40.4781 -82.3353 108° East 148 170 7,600  Level Indianapolis Center
04:17PM 40.4658 -82.2839 107° East 147 169 7,600  Level Indianapolis Center
04:18PM 40.4542 -82.2322 107° East 147 169 7,600  Level Indianapolis Center
04:19PM 40.4439 -82.1844 106° East 143 165 7,600  Level Indianapolis Center
04:20PM 40.4300 -82.1300 109° East 145 167 7,600  Level Indianapolis Center
04:21PM 40.4181 -82.0797 107° East 148 170 7,600  Level Indianapolis Center
04:22PM 40.4058 -82.0303 108° East 142 163 7,600  Level Indianapolis Center
04:23PM 40.3925 -81.9753 108° East 150 173 7,600  Level Indianapolis Center
04:24PM 40.3775 -81.9189 109° East 145 167 7,600  Level Indianapolis Center
04:25PM 40.3639 -81.8650 108° East 150 173 7,600  Level Indianapolis Center
04:26PM 40.3519 -81.8164 108° East 145 167 7,600  Level Indianapolis Center
04:27PM 40.3389 -81.7647 108° East 146 168 7,600  Level Indianapolis Center
04:28PM 40.3264 -81.7144 108° East 145 167 7,600  Level Indianapolis Center
04:29PM 40.3158 -81.6644 105° East 143 165 7,600  Level Indianapolis Center
04:30PM 40.3047 -81.6139 106° East 142 163 7,600  Level Indianapolis Center
04:31PM 40.2939 -81.5586 104° East 149 171 7,600  Level Indianapolis Center
04:32PM 40.2825 -81.5058 106° East 151 174 7,600  Level Indianapolis Center
04:33PM 40.2706 -81.4575 108° East 146 168 7,600  Level Indianapolis Center
04:34PM 40.2583 -81.4097 109° East 140 161 7,600  Level Indianapolis Center
04:35PM 40.2467 -81.3558 106° East 145 167 7,600  Level Indianapolis Center
04:36PM 40.2344 -81.3072 108° East 144 166 7,600  Level Indianapolis Center
04:37PM 40.2228 -81.2572 107° East 143 165 7,600  Level Indianapolis Center
04:38PM 40.2092 -81.1981 107° East 143 165 7,600  Level Indianapolis Center
04:39PM 40.1964 -81.1475 108° East 145 167 7,600  Level Indianapolis Center
04:40PM 40.1925 -81.1231 102° East 146 168 7,600  Level Cleveland Center
04:41PM 40.1781 -81.0650 108° East 142 163 7,600  Level Cleveland Center
04:42PM 40.1672 -81.0147 106° East 142 163 7,600  Level Cleveland Center
04:43PM 40.1542 -80.9644 109° East 145 167 7,600  Level Cleveland Center
04:44PM 40.1422 -80.9156 108° East 144 166 7,600  Level Cleveland Center
04:45PM 40.1306 -80.8664 107° East 143 165 7,600  Level Cleveland Center
04:46PM 40.1194 -80.8156 106° East 145 167 7,600 -180 Level Cleveland Center
04:47PM 40.1086 -80.7514 102° East 151 174 7,300 -300 Descending Cleveland Center
04:48PM 40.1036 -80.6942 96° East 159 183 7,000 -360 Descending Cleveland Center
04:49PM 40.0908 -80.6403 107° East 156 180 6,600 -420 Descending Cleveland Center
04:50PM 40.0761 -80.5861 110° East 160 184 6,200 -480 Descending Cleveland Center
04:51PM 40.0628 -80.5297 107° East 163 188 5,700 -360 Descending Cleveland Center
04:52PM 40.0533 -80.4747 103° East 161 185 5,500 -120 Descending Cleveland Center
04:53PM 40.0425 -80.4239 106° East 155 178 5,500  Level Cleveland Center
04:54PM 40.0269 -80.3639 109° East 149 171 5,500  Level Cleveland Center
04:55PM 40.0139 -80.3133 109° East 148 170 5,500  Level Cleveland Center
04:56PM 40.0017 -80.2625 107° East 148 170 5,500  Level Cleveland Center
04:57PM 39.9900 -80.2122 107° East 147 169 5,500  Level Cleveland Center
04:58PM 39.9767 -80.1625 109° East 146 168 5,500  Level Cleveland Center
04:59PM 39.9644 -80.1131 108° East 146 168 5,500  Level Cleveland Center
05:00PM 39.9525 -80.0631 107° East 145 167 5,500  Level Cleveland Center
05:01PM 39.9369 -80.0036 109° East 146 168 5,500 -60 Level Cleveland Center
05:02PM 39.9247 -79.9539 108° East 145 167 5,400 -60 Descending Cleveland Center
05:03PM 39.9100 -79.9036 111° Southeast 147 169 5,400  Level Cleveland Center
05:04PM 39.8919 -79.8489 113° Southeast 148 170 5,500  Climbing Cleveland Center
05:04PM 39.8964 -79.8531 324° Northwest 149 171 5,400  Descending Cleveland Center
05:05PM 39.8825 -79.8147 115° Southeast 150 173 5,500  Climbing Cleveland Center
05:05PM 39.8819 -79.8028 93° East 150 173 5,400  Descending Cleveland Center
05:06PM 39.8703 -79.7639 111° Southeast 152 175 5,500  Climbing Cleveland Center
05:06PM 39.8689 -79.7522 99° East 148 170 5,400  Descending Cleveland Center
05:07PM 39.8539 -79.7097 115° Southeast 151 174 5,500  Climbing Cleveland Center
05:07PM 39.8500 -79.6900 104° East 152 175 5,400  Descending Cleveland Center
05:08PM 39.8400 -79.6558 111° Southeast 153 176 5,500  Climbing Cleveland Center
05:08PM 39.8356 -79.6386 109° East 152 175 5,400  Descending Cleveland Center
05:09PM 39.8272 -79.6078 109° East 151 174 5,500  Climbing Cleveland Center
05:10PM 39.8242 -79.5861 100° East 152 175 5,400  Descending Cleveland Center
05:10PM 39.8131 -79.5567 116° Southeast 148 170 5,500  Climbing Cleveland Center
05:11PM 39.8097 -79.5361 102° East 149 171 5,400  Descending Cleveland Center
05:11PM 39.7989 -79.5003 111° Southeast 149 171 5,500  Climbing Cleveland Center
05:12PM 39.7969 -79.4842 99° East 150 173 5,400  Descending Cleveland Center
05:12PM 39.7844 -79.4492 115° Southeast 152 175 5,500  Climbing Cleveland Center
05:13PM 39.7817 -79.4322 102° East 153 176 5,400 -180 Descending Cleveland Center
05:13PM 39.7706 -79.3928 110° East 154 177 5,300 -300 Descending Cleveland Center
05:14PM 39.7683 -79.3794 102° East 154 177 5,100 -300 Descending Cleveland Center
05:14PM 39.7611 -79.3317 101° East 161 185 5,000 -300 Descending Cleveland Center
05:15PM 39.7611 -79.3103 90° East 159 183 4,800 -240 Descending Cleveland Center
05:15PM 39.7572 -79.2767 99° East 161 185 4,800 -240 Level Cleveland Center
05:16PM 39.7586 -79.2531 86° East 160 184 4,600  Descending Cleveland Center
05:16PM 39.7533 -79.2244 103° East 147 169 4,800  Climbing Cleveland Center
05:17PM 39.7519 -79.2058 96° East 146 168 4,600 -120 Descending Cleveland Center
05:17PM 39.7425 -79.1794 115° Southeast 133 153 4,700 -120 Climbing Cleveland Center
05:18PM 39.7417 -79.1578 93° East 141 162 4,500 -240 Descending Cleveland Center
05:18PM 39.7278 -79.1286 122° Southeast 138 159 4,500 -120 Level Cleveland Center
05:19PM 39.7250 -79.1117 102° East 141 162 4,400  Descending Cleveland Center
05:19PM 39.7108 -79.0828 123° Southeast 141 162 4,500  Climbing Cleveland Center
05:20PM 39.7092 -79.0661 97° East 140 161 4,400  Descending Cleveland Center
05:20PM 39.6956 -79.0397 124° Southeast 137 158 4,500  Climbing Cleveland Center
05:21PM 39.6936 -79.0206 98° East 139 160 4,400  Descending Cleveland Center
05:21PM 39.6803 -78.9944 124° Southeast 139 160 4,500 -180 Climbing Cleveland Center
05:22PM 39.6678 -78.9436 108° East 147 169 4,200 -240 Descending Cleveland Center
05:23PM 39.6614 -78.8942 100° East 174 200 4,100 -120 Descending Cleveland Center
05:23PM 39.6619 -78.8861 85° East 148 170 4,100  Level Cleveland Center
05:24PM 39.6600 -78.8342 93° East 144 166 4,100 60 Level Cleveland Center
05:25PM 39.6553 -78.7875 97° East 137 158 4,300 60 Climbing Cleveland Center
05:26PM 39.6503 -78.7433 98° East 174 200 4,300  Level Cleveland Center
05:26PM 39.6489 -78.7378 108° East 137 158 4,300 -240 Level Cleveland Center
05:27PM 39.6306 -78.6978 121° Southeast 146 168 4,100  Descending Cleveland Center
05:27PM 39.6456 -78.7264 304° West 137 158 4,300 -120 Climbing Cleveland Center
05:28PM 39.6075 -78.6547 125° Southeast 146 168 4,000 -180 Descending Cleveland Center
05:29PM 39.5925 -78.6158 117° Southeast 195 224 4,000  Level Washington Center
05:30PM 39.5792 -78.5667 109° East 170 196 4,000  Level Washington Center
05:31PM 39.5656 -78.5178 110° East 148 170 4,000  Level Washington Center
05:32PM 39.5542 -78.4714 108° East 142 163 4,000  Level Washington Center
05:33PM 39.5408 -78.4253 111° Southeast 142 163 4,000  Level Washington Center
05:34PM 39.5253 -78.3761 112° Southeast 142 163 4,000  Level Washington Center
05:35PM 39.5117 -78.3272 110° East 142 163 4,000  Level Washington Center
05:36PM 39.4983 -78.2783 109° East 142 163 4,000  Level Washington Center
05:37PM 39.4869 -78.2322 108° East 137 158 4,000  Level Washington Center
05:38PM 39.4731 -78.1886 112° Southeast 137 158 4,000  Level Washington Center
05:39PM 39.4575 -78.1369 111° Southeast 142 163 4,000 -180 Level Washington Center
05:40PM 39.4461 -78.0856 106° East 142 163 3,700 -240 Descending Washington Center
05:41PM 39.4369 -78.0342 103° East 147 169 3,600 -120 Descending Washington Center
05:43PM 39.4236 -77.9492 101° East 148 170 3,500  Descending Cleveland Center
05:43PM 39.4167 -77.9167 105° East 144 166 3,600  Climbing Potomac TRACON
05:44PM 39.4000 -77.8667 113° Southeast 144 166 3,600  Level Potomac TRACON
05:45PM 39.3833 -77.8167 113° Southeast 145 167 3,600 -180 Level Potomac TRACON
05:46PM 39.3667 -77.7667 113° Southeast 144 166 3,300 -180 Descending Potomac TRACON
05:47PM 39.3500 -77.7167 113° Southeast 147 169 3,300 -60 Level Potomac TRACON
05:49PM 39.3333 -77.6667 113° Southeast 150 173 3,200 -120 Descending Potomac TRACON
05:50PM 39.3333 -77.6167 90° East 148 170 3,100 -120 Descending Potomac TRACON
05:51PM 39.3167 -77.5667 113° Southeast 148 170 3,000 -180 Descending Potomac TRACON
05:52PM 39.3000 -77.5167 113° Southeast 147 169 2,800 -300 Descending Potomac TRACON
05:53PM 39.2833 -77.4667 113° Southeast 151 174 2,500 -180 Descending Potomac TRACON
05:54PM 39.2667 -77.4167 113° Southeast 150 173 2,500  Level Potomac TRACON
05:55PM 39.2500 -77.3667 113° Southeast 144 166 2,500  Level Potomac TRACON
05:56PM 39.2333 -77.3167 113° Southeast 156 180 2,500  Level Potomac TRACON
05:57PM 39.2167 -77.2833 123° Southeast 140 161 2,500  Level Potomac TRACON
05:58PM 39.2000 -77.2333 113° Southeast 142 163 2,500  Level Potomac TRACON
05:59PM 39.1833 -77.1833 113° Southeast 146 168 2,600  Climbing Potomac TRACON
06:00PM 39.1667 -77.1333 113° Southeast 144 166 2,600 -240 Level Potomac TRACON
06:01PM 39.1667 -77.0833 90° East 153 176 2,200 -300 Descending Potomac TRACON
06:02PM 39.1500 -77.0333 113° Southeast 151 174 2,100 -180 Descending Potomac TRACON
06:03PM 39.1167 -76.9833 131° Southeast 155 178 1,900 -300 Descending Potomac TRACON
06:04PM 39.1000 -76.9500 123° Southeast 157 181 1,600 -300 Descending Potomac TRACON
06:05PM 39.0500 -76.9333 165° South 156 180 1,300 -240 Descending Potomac TRACON
06:06PM 39.0167 -76.9500 201° Southwest 138 159 1,200 -420 Descending Potomac TRACON
06:07PM 38.9833 -76.9333 159° South 87 100 500 -720 Descending Potomac TRACON